Los Angeles, California
Traffic Map
Current Weather Conditions
Los Angeles, California
Overcast
Overcast
61°
Feels Like: 61°
Wind Chill: 61° Ceiling: 6000
Heat Index: 61° Visibility: 10mi
Dew Point: 47° Wind: 0mph
Humidity: 60% Direction: ° ()
Pressure: 30.13in Gusts: 0mph
Raw Report DataKCQT 182147Z AUTO 00000KT 10SM BKN060 OVC075 16/08 A3013 RMK AO2 SLP203 T01610083
Traffic Incident Summary
Active as of:
Severity:
Category:
InformationThere was an issue retrieving the traffic information for this location. Please try a different location or try again shortly.
Advertisements
Track Severe Weather on mobile